Time;durP1;ratioP1;P1;durP2;ratioP2;P2;SDS_P1;SDS_P2;PMS_P1;PMS_P2;Temp;Humidity;BMP_temperature;BMP_pressure;BME280_temperature;BME280_humidity;BME280_pressure;Samples;Min_cycle;Max_cycle;Signal;HPM_P1;HPM_P2
2023/01/14 00:01:40;;;;;;;3.63;1.30;;;;;;;4.32;97.20;98385.19;4222529;27;20061;-74
2023/01/14 00:03:41;;;;;;;4.57;1.40;;;;;;;4.34;97.31;98380.97;4225287;27;20043;-74
2023/01/14 00:05:41;;;;;;;5.55;1.40;;;;;;;4.38;96.56;98376.38;4223407;27;20138;-74
2023/01/14 00:07:42;;;;;;;6.10;1.52;;;;;;;4.40;96.83;98376.06;4225354;27;20067;-74
2023/01/14 00:09:43;;;;;;;7.55;1.52;;;;;;;4.42;96.85;98376.53;4222367;27;20127;-75
2023/01/14 00:11:46;;;;;;;5.35;2.05;;;;;;;4.42;96.68;98385.53;4229413;27;20108;-74
2023/01/14 00:13:46;;;;;;;9.00;1.75;;;;;;;4.44;97.30;98396.94;4232689;27;20079;-74
2023/01/14 00:15:55;;;;;;;2.97;1.30;;;;;;;4.42;97.17;98373.78;4229672;27;20051;-75
2023/01/14 00:17:55;;;;;;;3.70;1.35;;;;;;;4.43;96.79;98395.34;4223932;27;20318;-74
2023/01/14 00:19:55;;;;;;;11.43;2.10;;;;;;;4.39;97.04;98394.44;4221667;27;20046;-74
2023/01/14 00:21:55;;;;;;;6.03;1.40;;;;;;;4.46;97.61;98397.41;4221968;27;20332;-74
2023/01/14 00:23:56;;;;;;;3.05;1.20;;;;;;;4.44;97.44;98387.94;4225506;27;20055;-74
2023/01/14 00:26:04;;;;;;;3.65;1.20;;;;;;;4.41;97.11;98385.88;4237223;27;20513;-74
2023/01/14 00:28:04;;;;;;;4.70;1.52;;;;;;;4.48;97.27;98399.81;4236234;27;20032;-74
2023/01/14 00:30:05;;;;;;;3.92;1.60;;;;;;;4.47;97.42;98399.03;4226673;27;20646;-74
2023/01/14 00:32:06;;;;;;;5.30;1.38;;;;;;;4.51;97.49;98404.63;4238019;27;20038;-75
2023/01/14 00:34:06;;;;;;;3.60;1.75;;;;;;;4.56;97.24;98406.34;4229615;27;20028;-75
2023/01/14 00:36:09;;;;;;;5.78;1.48;;;;;;;4.61;97.17;98408.84;4222053;27;20052;-74
2023/01/14 00:38:09;;;;;;;6.32;1.55;;;;;;;4.60;97.24;98415.47;4222022;27;20035;-74
2023/01/14 00:40:10;;;;;;;7.55;2.70;;;;;;;4.72;97.11;98415.50;4222000;27;20039;-74
2023/01/14 00:42:10;;;;;;;4.47;1.60;;;;;;;4.79;96.32;98426.69;4221480;27;20031;-74
2023/01/14 00:44:11;;;;;;;6.47;1.60;;;;;;;4.73;96.31;98419.84;4226410;27;20035;-75
2023/01/14 00:46:17;;;;;;;5.45;2.00;;;;;;;4.71;97.29;98419.38;4236736;27;20042;-74
2023/01/14 00:48:17;;;;;;;5.15;1.38;;;;;;;4.65;97.40;98426.22;4221884;27;20061;-74
2023/01/14 00:50:18;;;;;;;7.93;1.73;;;;;;;4.65;97.63;98432.50;4221517;27;20067;-74
2023/01/14 00:52:18;;;;;;;2.50;1.33;;;;;;;4.73;97.20;98422.59;4220826;27;20516;-74
2023/01/14 00:54:19;;;;;;;2.20;1.75;;;;;;;4.77;97.47;98431.72;4221434;27;20460;-75
2023/01/14 00:56:21;;;;;;;6.75;1.65;;;;;;;4.75;97.15;98418.34;4221186;27;20763;-74
2023/01/14 00:58:22;;;;;;;4.30;1.52;;;;;;;4.79;97.18;98435.72;4221624;27;20049;-74
2023/01/14 01:00:23;;;;;;;6.55;1.48;;;;;;;4.83;97.34;98440.53;4221836;27;20050;-74
2023/01/14 01:02:23;;;;;;;6.75;1.73;;;;;;;4.92;95.84;98442.00;4221791;27;20138;-74
2023/01/14 01:04:24;;;;;;;5.65;1.52;;;;;;;4.88;96.56;98440.28;4230740;27;20087;-74
2023/01/14 01:06:27;;;;;;;3.38;1.90;;;;;;;4.88;97.01;98434.81;4235879;27;20047;-75
2023/01/14 01:08:27;;;;;;;5.95;1.73;;;;;;;4.90;96.16;98446.25;4234856;27;20132;-74
2023/01/14 01:10:27;;;;;;;6.63;1.50;;;;;;;4.95;95.54;98441.31;4232764;27;20430;-74
2023/01/14 01:12:27;;;;;;;4.68;1.25;;;;;;;4.96;96.41;98445.66;4232616;27;20733;-74
2023/01/14 01:14:28;;;;;;;7.55;1.83;;;;;;;4.87;96.46;98441.44;4223620;27;20309;-74
2023/01/14 01:16:28;;;;;;;4.65;1.30;;;;;;;4.82;96.29;98447.16;4220460;27;20040;-74
2023/01/14 01:18:28;;;;;;;3.58;1.60;;;;;;;4.75;96.87;98447.72;4230371;27;21201;-75
2023/01/14 01:20:29;;;;;;;3.55;1.48;;;;;;;4.83;97.12;98454.22;4235726;27;20041;-74
2023/01/14 01:22:30;;;;;;;4.15;1.88;;;;;;;4.87;96.39;98457.88;4237042;27;20065;-74
2023/01/14 01:24:30;;;;;;;6.13;1.80;;;;;;;4.87;97.32;98453.19;4223817;27;20105;-74
2023/01/14 01:26:30;;;;;;;4.40;1.50;;;;;;;4.84;97.16;98456.63;4224265;27;20431;-74
2023/01/14 01:28:32;;;;;;;6.35;1.40;;;;;;;4.88;96.33;98471.28;4221405;27;20115;-75
2023/01/14 01:30:32;;;;;;;3.80;1.35;;;;;;;4.86;96.47;98468.03;4221318;27;20454;-75
2023/01/14 01:32:33;;;;;;;6.03;1.65;;;;;;;4.81;97.48;98465.53;4220493;27;20078;-75
2023/01/14 01:34:33;;;;;;;3.72;1.70;;;;;;;4.86;97.14;98470.78;4231825;27;20478;-74
2023/01/14 01:36:33;;;;;;;3.72;1.55;;;;;;;4.83;97.11;98471.47;4233011;27;20048;-74
2023/01/14 01:38:34;;;;;;;3.47;1.40;;;;;;;4.86;97.67;98475.47;4221298;27;20286;-74
2023/01/14 01:40:34;;;;;;;5.07;1.65;;;;;;;4.84;98.10;98469.53;4227565;27;20149;-74
2023/01/14 01:42:35;;;;;;;5.97;2.13;;;;;;;4.84;97.22;98480.50;4235289;27;20590;-74
2023/01/14 01:44:35;;;;;;;4.13;1.63;;;;;;;4.85;97.62;98473.88;4224463;27;20043;-74
2023/01/14 01:46:37;;;;;;;5.05;1.75;;;;;;;4.83;97.27;98484.38;4225385;27;20161;-75
2023/01/14 01:48:42;;;;;;;5.40;1.70;;;;;;;4.81;97.94;98475.72;4236090;27;20043;-74
2023/01/14 01:50:47;;;;;;;9.43;1.98;;;;;;;4.90;97.04;98476.41;4236686;27;20817;-74
2023/01/14 01:52:48;;;;;;;10.65;2.30;;;;;;;4.86;97.11;98480.94;4221319;27;20036;-74
2023/01/14 01:54:54;;;;;;;6.22;1.63;;;;;;;4.89;97.69;98475.59;4226850;27;20040;-75
2023/01/14 01:56:55;;;;;;;5.72;1.85;;;;;;;4.77;98.94;98481.84;4220168;27;20031;-74
2023/01/14 01:58:56;;;;;;;5.78;1.85;;;;;;;4.73;99.33;98493.84;4220522;27;20068;-74
2023/01/14 02:00:57;;;;;;;7.30;2.70;;;;;;;4.77;99.08;98486.53;4221066;27;20078;-74
2023/01/14 02:03:02;;;;;;;4.80;1.70;;;;;;;4.75;99.24;98488.81;4219656;27;20548;-74
2023/01/14 02:05:03;;;;;;;7.88;2.22;;;;;;;4.70;100.00;98489.03;4231659;27;20320;-75
2023/01/14 02:07:15;;;;;;;4.18;1.58;;;;;;;4.69;100.00;98490.97;4220804;27;20478;-75
2023/01/14 02:09:16;;;;;;;5.18;1.52;;;;;;;4.65;100.00;98484.59;4219476;27;20450;-74
2023/01/14 02:11:44;;;;;;;5.18;2.05;;;;;;;4.65;100.00;98498.28;4220475;27;20067;-75
2023/01/14 02:14:04;;;;;;;4.80;1.67;;;;;;;4.60;100.00;98506.69;4229735;27;20348;-74
2023/01/14 02:16:11;;;;;;;7.35;1.77;;;;;;;4.51;100.00;98498.56;4226610;27;20070;-75
2023/01/14 02:18:15;;;;;;;5.97;2.42;;;;;;;4.63;100.00;98505.22;4219881;27;20353;-74
2023/01/14 02:20:26;;;;;;;8.35;2.10;;;;;;;4.58;100.00;98489.81;4219832;27;20579;-74
2023/01/14 02:22:47;;;;;;;9.90;1.92;;;;;;;4.55;100.00;98495.16;4225157;27;20049;-74
2023/01/14 02:24:54;;;;;;;3.88;2.00;;;;;;;4.54;100.00;98488.88;4230443;27;20556;-74
2023/01/14 02:27:30;;;;;;;3.92;2.10;;;;;;;4.54;100.00;98499.81;4221690;27;20077;-74
2023/01/14 02:29:45;;;;;;;6.10;1.50;;;;;;;4.53;100.00;98500.16;4220612;27;20171;-74
2023/01/14 02:31:56;;;;;;;7.43;1.70;;;;;;;4.53;100.00;98497.44;4220217;27;20472;-74
2023/01/14 02:34:21;;;;;;;6.70;2.10;;;;;;;4.53;100.00;98514.66;4222882;27;20576;-74
2023/01/14 02:36:37;;;;;;;4.63;1.60;;;;;;;4.59;100.00;98523.50;4221328;27;20083;-75
2023/01/14 02:39:02;;;;;;;2.83;1.60;;;;;;;4.59;100.00;98507.06;4220066;27;20054;-74
2023/01/14 02:41:17;;;;;;;4.80;1.60;;;;;;;4.58;100.00;98510.94;4224843;27;20039;-74
2023/01/14 02:46:09;;;;;;;3.85;1.40;;;;;;;4.55;100.00;98509.69;4220271;27;20108;-75
2023/01/14 02:48:13;;;;;;;6.07;2.03;;;;;;;4.52;100.00;98507.59;4225561;27;20531;-74
2023/01/14 02:50:15;;;;;;;4.50;1.40;;;;;;;4.50;100.00;98509.88;4229040;27;20031;-74
2023/01/14 02:52:17;;;;;;;4.95;1.83;;;;;;;4.51;100.00;98503.25;4236290;27;20036;-75
2023/01/14 02:54:17;;;;;;;4.80;1.40;;;;;;;4.47;100.00;98505.06;4231451;27;20141;-75
2023/01/14 02:56:18;;;;;;;4.57;1.70;;;;;;;4.48;100.00;98515.69;4225997;27;20028;-75
2023/01/14 02:58:18;;;;;;;5.50;1.50;;;;;;;4.48;100.00;98521.19;4220065;27;20054;-75
2023/01/14 03:00:30;;;;;;;4.22;1.67;;;;;;;4.47;99.26;98519.56;4219633;27;20031;-74
2023/01/14 03:02:47;;;;;;;7.45;1.60;;;;;;;4.47;99.50;98514.09;4218939;27;20053;-74
2023/01/14 03:04:56;;;;;;;4.38;1.75;;;;;;;4.51;99.66;98506.78;4219072;27;20071;-74
2023/01/14 03:07:03;;;;;;;5.32;1.63;;;;;;;4.61;99.43;98499.28;4228811;27;20502;-74
2023/01/14 03:09:19;;;;;;;5.38;1.60;;;;;;;4.60;99.72;98503.16;4224045;27;20048;-74
2023/01/14 03:11:20;;;;;;;7.20;2.10;;;;;;;4.55;100.00;98504.19;4219829;27;20078;-74
2023/01/14 03:13:30;;;;;;;7.57;1.80;;;;;;;4.60;99.28;98511.38;4218168;27;20047;-75
2023/01/14 03:15:43;;;;;;;6.00;1.75;;;;;;;4.61;99.63;98522.00;4218864;27;20480;-74
2023/01/14 03:18:01;;;;;;;6.22;1.75;;;;;;;4.66;99.43;98501.81;4227280;27;20051;-74
2023/01/14 03:20:15;;;;;;;8.10;2.88;;;;;;;4.63;100.00;98510.69;4227728;27;20125;-74
2023/01/14 03:22:15;;;;;;;5.53;1.50;;;;;;;4.65;100.00;98509.25;4234533;27;20277;-74
2023/01/14 03:24:30;;;;;;;5.22;1.52;;;;;;;4.64;99.93;98502.16;4234081;27;20106;-74
2023/01/14 03:26:33;;;;;;;5.03;1.58;;;;;;;4.65;100.00;98508.44;4231959;27;20043;-74
2023/01/14 03:28:38;;;;;;;5.50;1.73;;;;;;;4.62;100.00;98500.88;4221454;27;20466;-75
2023/01/14 03:30:45;;;;;;;5.32;1.70;;;;;;;4.59;100.00;98499.63;4218997;27;20036;-74
2023/01/14 03:32:53;;;;;;;4.35;1.60;;;;;;;4.53;99.39;98498.22;4228646;27;20092;-74
2023/01/14 03:35:11;;;;;;;5.75;1.60;;;;;;;4.53;99.62;98491.94;4220686;27;20091;-74
2023/01/14 03:37:13;;;;;;;4.28;1.80;;;;;;;4.56;98.52;98492.09;4229665;27;20138;-74
2023/01/14 03:39:19;;;;;;;4.20;1.52;;;;;;;4.60;98.07;98486.72;4219787;27;20043;-74
2023/01/14 03:43:46;;;;;;;6.57;1.85;;;;;;;4.60;97.94;98494.94;4219330;27;20043;-74
2023/01/14 03:45:48;;;;;;;3.95;2.30;;;;;;;4.63;97.12;98502.47;4219896;27;20067;-75
2023/01/14 03:47:48;;;;;;;3.42;1.60;;;;;;;4.64;97.42;98513.13;4219343;27;20451;-74
2023/01/14 03:49:50;;;;;;;7.43;2.25;;;;;;;4.62;97.33;98509.91;4223906;27;20055;-74
2023/01/14 03:52:00;;;;;;;5.70;2.00;;;;;;;4.65;96.32;98516.66;4235105;27;20078;-74
2023/01/14 03:54:21;;;;;;;7.55;2.15;;;;;;;4.64;96.78;98520.56;4218054;28;20042;-74
2023/01/14 03:56:37;;;;;;;15.07;2.38;;;;;;;4.62;97.14;98520.88;4231238;27;20062;-75
2023/01/14 03:59:02;;;;;;;7.80;1.92;;;;;;;4.65;96.39;98511.19;4223351;27;20069;-74
2023/01/14 04:01:14;;;;;;;6.47;1.70;;;;;;;4.64;97.13;98518.59;4218284;27;20462;-74
2023/01/14 04:03:15;;;;;;;3.20;2.00;;;;;;;4.61;97.27;98505.56;4221973;27;20142;-74
2023/01/14 04:05:17;;;;;;;7.00;1.83;;;;;;;4.58;96.63;98500.78;4226600;27;20050;-74
2023/01/14 04:07:17;;;;;;;11.15;2.40;;;;;;;4.57;97.06;98518.34;4225947;27;20035;-74
2023/01/14 04:09:17;;;;;;;10.90;2.38;;;;;;;4.57;97.28;98507.41;4219111;27;20042;-74
2023/01/14 04:11:18;;;;;;;11.35;2.05;;;;;;;4.58;97.05;98498.03;4219666;27;20138;-74
2023/01/14 04:15:37;;;;;;;3.17;1.80;;;;;;;4.64;97.24;98504.91;4227705;27;20054;-74
2023/01/14 04:17:37;;;;;;;10.30;1.83;;;;;;;4.65;97.08;98511.19;4222443;27;20487;-74
2023/01/14 04:19:38;;;;;;;9.80;1.90;;;;;;;4.62;97.69;98511.84;4219627;27;20091;-75
2023/01/14 04:21:38;;;;;;;6.93;2.83;;;;;;;4.57;97.58;98504.66;4218658;27;20114;-74
2023/01/14 04:23:38;;;;;;;7.90;1.90;;;;;;;4.55;97.42;98506.94;4223893;27;20059;-74
2023/01/14 04:25:38;;;;;;;8.43;2.72;;;;;;;4.59;97.04;98507.06;4218543;27;20076;-74
2023/01/14 04:27:39;;;;;;;7.18;2.78;;;;;;;4.56;97.27;98513.22;4230146;27;20393;-74
2023/01/14 04:29:39;;;;;;;7.60;1.65;;;;;;;4.55;97.15;98508.84;4227049;27;20031;-74
2023/01/14 04:31:39;;;;;;;8.43;2.10;;;;;;;4.60;96.77;98503.16;4221971;27;20046;-74
2023/01/14 04:33:40;;;;;;;5.13;1.95;;;;;;;4.54;97.11;98510.00;4225669;27;20067;-74
2023/01/14 04:35:40;;;;;;;10.73;2.28;;;;;;;4.54;96.25;98499.03;4225531;27;20047;-74
2023/01/14 04:37:40;;;;;;;8.50;1.60;;;;;;;4.58;95.98;98511.72;4237306;27;20471;-74
2023/01/14 04:39:41;;;;;;;5.75;2.13;;;;;;;4.51;96.67;98503.25;4237261;27;20046;-74
2023/01/14 04:44:00;;;;;;;5.95;1.67;;;;;;;4.45;96.65;98496.38;4224211;27;20054;-74
2023/01/14 04:46:00;;;;;;;6.82;1.58;;;;;;;4.44;96.85;98501.06;4227711;27;20048;-74
2023/01/14 04:48:02;;;;;;;9.05;1.90;;;;;;;4.43;96.75;98502.19;4221780;27;20043;-74
2023/01/14 04:50:30;;;;;;;2.97;1.88;;;;;;;4.43;97.52;98501.41;4221700;27;20047;-74
2023/01/14 04:52:23;;;;;;;7.07;1.98;;;;;;;4.39;97.34;98501.28;4221097;27;20047;-75
2023/01/14 04:54:24;;;;;;;8.07;1.95;;;;;;;4.40;97.37;98500.13;4229383;27;20046;-74
2023/01/14 04:56:24;;;;;;;5.35;2.20;;;;;;;4.42;97.03;98513.50;4238404;27;20519;-74
2023/01/14 04:58:24;;;;;;;5.25;1.55;;;;;;;4.41;96.31;98514.63;4229421;27;20101;-74
2023/01/14 05:00:25;;;;;;;6.30;1.52;;;;;;;4.41;98.14;98515.44;4233326;27;20290;-74
2023/01/14 05:02:25;;;;;;;7.20;2.15;;;;;;;4.42;98.50;98518.97;4221729;27;20425;-74
2023/01/14 05:04:26;;;;;;;7.70;2.72;;;;;;;4.39;96.69;98519.66;4226136;27;20048;-74
2023/01/14 05:06:28;;;;;;;5.75;2.10;;;;;;;4.33;96.50;98515.50;4221319;27;20044;-75
2023/01/14 05:08:28;;;;;;;4.35;1.83;;;;;;;4.39;97.04;98520.47;4221791;27;20051;-74
2023/01/14 05:10:29;;;;;;;6.30;1.70;;;;;;;4.41;97.36;98531.88;4222009;27;20169;-74
2023/01/14 05:12:30;;;;;;;7.20;1.52;;;;;;;4.43;95.88;98537.81;4219912;27;20083;-74
2023/01/14 05:14:30;;;;;;;12.32;2.33;;;;;;;4.41;96.19;98534.63;4226882;27;20079;-75
2023/01/14 05:16:30;;;;;;;6.95;1.90;;;;;;;4.41;95.93;98537.34;4228551;27;20483;-74
2023/01/14 05:18:31;;;;;;;5.63;2.00;;;;;;;4.39;95.87;98530.63;4236473;27;20524;-74
2023/01/14 05:20:31;;;;;;;5.28;1.63;;;;;;;4.34;95.99;98528.06;4225145;27;20122;-75
2023/01/14 05:22:32;;;;;;;8.27;2.28;;;;;;;4.28;96.10;98537.63;4221154;27;20097;-74
2023/01/14 05:24:32;;;;;;;7.80;1.88;;;;;;;4.22;97.17;98537.84;4231541;27;20047;-74
2023/01/14 05:26:32;;;;;;;4.95;2.03;;;;;;;4.23;97.38;98522.22;4232533;27;20121;-75
2023/01/14 05:28:33;;;;;;;7.45;1.80;;;;;;;4.18;96.91;98520.47;4236280;27;20114;-74
2023/01/14 05:30:33;;;;;;;4.88;1.85;;;;;;;4.20;97.27;98523.66;4237583;27;20713;-74
2023/01/14 05:32:34;;;;;;;4.78;1.80;;;;;;;4.18;96.72;98509.50;4219796;27;20040;-74
2023/01/14 05:34:34;;;;;;;7.15;2.00;;;;;;;4.21;96.28;98508.03;4223436;27;20205;-74
2023/01/14 05:36:34;;;;;;;3.67;1.60;;;;;;;4.30;95.95;98505.22;4234605;27;20051;-74
2023/01/14 05:38:35;;;;;;;7.05;1.77;;;;;;;4.31;95.77;98502.16;4233349;27;20047;-74
2023/01/14 05:40:36;;;;;;;11.75;2.92;;;;;;;4.32;95.87;98501.03;4221185;27;20324;-74
2023/01/14 05:47:14;;;;;;;7.15;1.77;;;;;;;4.42;95.37;98503.34;4227085;27;20088;-74
2023/01/14 05:49:15;;;;;;;12.30;2.35;;;;;;;4.39;95.71;98501.28;4228176;27;20043;-74
2023/01/14 05:51:15;;;;;;;7.75;2.45;;;;;;;4.40;95.35;98505.63;4220853;27;20051;-74
2023/01/14 05:53:15;;;;;;;12.35;2.75;;;;;;;4.36;95.75;98499.19;4220263;27;20036;-74
2023/01/14 05:55:16;;;;;;;8.00;2.40;;;;;;;4.35;96.12;98508.56;4220882;27;20042;-74
2023/01/14 05:57:16;;;;;;;8.57;2.35;;;;;;;4.31;95.40;98513.13;4220897;27;20085;-74
2023/01/14 05:59:16;;;;;;;8.02;2.08;;;;;;;4.30;96.28;98519.72;4224512;27;20051;-74
2023/01/14 06:08:14;;;;;;;6.45;1.85;;;;;;;4.26;96.57;98507.84;4234659;27;20091;-74
2023/01/14 06:10:14;;;;;;;5.22;1.98;;;;;;;4.22;95.95;98515.94;4230586;27;20031;-74
2023/01/14 06:12:33;;;;;;;10.25;2.53;;;;;;;4.23;96.10;98516.72;4232028;27;20432;-74
2023/01/14 06:14:34;;;;;;;9.35;2.30;;;;;;;4.18;96.61;98523.19;4220791;27;20040;-74
2023/01/14 06:16:40;;;;;;;7.95;2.10;;;;;;;4.17;97.33;98529.03;4222120;27;20075;-75
2023/01/14 06:18:43;;;;;;;9.93;2.08;;;;;;;4.16;96.06;98521.94;4225430;27;20047;-74
2023/01/14 06:20:44;;;;;;;7.13;2.05;;;;;;;4.15;96.64;98521.13;4230290;27;20425;-74
2023/01/14 06:22:44;;;;;;;9.23;2.50;;;;;;;4.11;97.05;98520.19;4230401;27;20251;-74
2023/01/14 06:24:44;;;;;;;5.57;2.22;;;;;;;4.13;96.81;98517.13;4220451;27;20127;-74
2023/01/14 06:26:45;;;;;;;5.72;2.15;;;;;;;4.13;96.44;98522.59;4220242;27;20092;-74
2023/01/14 06:28:45;;;;;;;7.72;2.15;;;;;;;4.17;95.72;98518.88;4221361;27;20470;-74
2023/01/14 06:30:46;;;;;;;5.85;2.22;;;;;;;4.21;96.75;98522.53;4231486;27;20074;-74
2023/01/14 06:32:46;;;;;;;6.68;2.08;;;;;;;4.17;95.92;98518.88;4221554;27;20391;-74
2023/01/14 06:34:46;;;;;;;9.57;2.58;;;;;;;4.21;95.48;98508.81;4221483;27;20039;-74
2023/01/14 06:36:47;;;;;;;9.18;2.67;;;;;;;4.23;94.10;98514.78;4220645;27;20485;-74
2023/01/14 06:38:47;;;;;;;6.53;2.10;;;;;;;4.31;94.54;98504.91;4222223;27;20073;-74
2023/01/14 06:40:47;;;;;;;7.65;2.40;;;;;;;4.27;94.97;98501.22;4233765;27;20071;-74
2023/01/14 06:42:52;;;;;;;12.68;2.40;;;;;;;4.32;94.31;98489.25;4221917;27;20468;-74
2023/01/14 06:44:53;;;;;;;4.85;2.05;;;;;;;4.32;94.87;98492.00;4216136;27;20040;-74
2023/01/14 06:46:54;;;;;;;9.20;2.35;;;;;;;4.25;94.20;98470.63;4218396;27;20108;-74
2023/01/14 06:48:54;;;;;;;11.18;2.25;;;;;;;4.19;94.37;98475.50;4220276;27;20140;-74
2023/01/14 06:50:55;;;;;;;5.90;2.17;;;;;;;4.16;94.05;98478.13;4223817;27;20568;-75
2023/01/14 06:52:59;;;;;;;7.50;1.70;;;;;;;4.16;93.80;98480.88;4221619;27;20387;-74
2023/01/14 06:55:00;;;;;;;7.97;2.22;;;;;;;4.09;93.62;98473.19;4223417;27;20043;-74
2023/01/14 06:57:02;;;;;;;6.28;2.28;;;;;;;4.09;94.38;98481.41;4223843;27;20039;-74
2023/01/14 06:59:03;;;;;;;;;;;;;;;4.07;94.89;98483.69;4227106;27;20066;-75
2023/01/14 07:01:03;;;;;;;5.15;1.65;;;;;;;4.11;95.88;98484.59;4222163;27;19920;-74
2023/01/14 07:03:04;;;;;;;9.60;2.53;;;;;;;4.10;95.27;98480.25;4223571;27;20066;-74
2023/01/14 07:05:05;;;;;;;7.05;1.95;;;;;;;4.15;96.45;98482.00;4221194;27;20475;-74
2023/01/14 07:07:05;;;;;;;9.05;2.55;;;;;;;4.08;95.28;98482.53;4223729;27;20046;-75
2023/01/14 07:09:06;;;;;;;3.88;2.00;;;;;;;4.11;94.50;98481.84;4218617;27;20231;-74
2023/01/14 07:11:06;;;;;;;9.80;3.92;;;;;;;4.10;95.72;98479.47;4220160;27;20456;-74
2023/01/14 07:13:07;;;;;;;6.57;2.17;;;;;;;4.11;95.81;98472.84;4221383;27;20481;-74
2023/01/14 07:15:07;;;;;;;6.00;2.22;;;;;;;4.09;95.96;98475.13;4224391;27;20067;-74
2023/01/14 07:17:08;;;;;;;10.93;2.55;;;;;;;4.08;95.32;98470.78;4223150;27;20046;-74
2023/01/14 07:19:09;;;;;;;8.95;2.55;;;;;;;4.11;94.98;98454.47;4221358;27;20085;-74
2023/01/14 07:21:10;;;;;;;10.15;2.00;;;;;;;4.08;94.69;98452.41;4222535;27;20047;-74
2023/01/14 07:23:10;;;;;;;5.97;2.08;;;;;;;4.04;95.34;98454.22;4220966;27;20385;-75
2023/01/14 07:25:10;;;;;;;6.20;1.85;;;;;;;3.98;95.19;98447.38;4221389;27;20128;-74
2023/01/14 07:27:11;;;;;;;11.90;2.60;;;;;;;3.94;94.92;98443.69;4222345;27;20043;-74
2023/01/14 07:29:11;;;;;;;6.68;1.67;;;;;;;3.88;96.92;98447.75;4222170;27;20462;-74
2023/01/14 07:31:12;;;;;;;6.63;2.08;;;;;;;3.87;97.40;98457.91;4218166;27;20086;-75
2023/01/14 07:33:12;;;;;;;6.03;1.63;;;;;;;3.90;96.37;98459.19;4115263;27;20089;-74
2023/01/14 07:35:12;;;;;;;5.78;2.40;;;;;;;3.88;95.62;98462.22;4219917;28;20511;-74
2023/01/14 07:37:13;;;;;;;6.97;2.13;;;;;;;3.92;97.31;98460.44;4225800;27;20043;-74
2023/01/14 07:39:13;;;;;;;7.00;2.30;;;;;;;3.87;96.85;98455.16;4217396;27;20110;-74
2023/01/14 07:41:18;;;;;;;7.80;2.05;;;;;;;3.90;96.85;98459.19;4219151;27;20126;-74
2023/01/14 07:43:18;;;;;;;8.75;2.05;;;;;;;3.89;97.02;98455.66;4226235;27;20360;-74
2023/01/14 07:45:19;;;;;;;4.45;1.77;;;;;;;3.97;96.99;98447.66;4218616;27;20389;-74
2023/01/14 07:47:19;;;;;;;9.65;2.08;;;;;;;3.96;95.61;98452.34;4218674;27;20249;-74
2023/01/14 07:49:20;;;;;;;6.65;2.10;;;;;;;4.03;95.94;98454.56;4228598;27;20393;-74
2023/01/14 07:51:23;;;;;;;4.68;1.60;;;;;;;4.01;97.24;98462.31;4218843;27;20039;-74
2023/01/14 07:53:23;;;;;;;3.08;1.50;;;;;;;4.00;97.09;98456.03;4224146;27;20485;-74
2023/01/14 07:55:24;;;;;;;7.72;1.70;;;;;;;3.98;96.67;98452.03;4224031;27;20075;-75
2023/01/14 07:57:24;;;;;;;5.78;1.63;;;;;;;3.99;97.17;98446.22;4219905;27;20482;-74
2023/01/14 07:59:24;;;;;;;3.33;1.50;;;;;;;4.01;97.06;98446.69;4220877;27;20132;-74
2023/01/14 08:01:25;;;;;;;6.63;1.58;;;;;;;3.99;96.48;98440.75;4222975;27;20051;-74
2023/01/14 08:03:25;;;;;;;7.15;1.48;;;;;;;4.00;96.83;98441.53;4225268;27;20040;-74
2023/01/14 08:05:25;;;;;;;6.40;1.90;;;;;;;4.04;96.84;98434.25;4228298;27;20052;-74
2023/01/14 08:07:26;;;;;;;6.03;2.15;;;;;;;4.14;94.56;98436.59;4226445;27;20052;-74
2023/01/14 08:09:28;;;;;;;8.30;2.65;;;;;;;4.13;94.58;98429.50;4225005;27;20070;-74
2023/01/14 08:11:29;;;;;;;7.20;1.88;;;;;;;4.19;94.78;98425.41;4230378;27;20506;-74
2023/01/14 08:13:31;;;;;;;4.57;1.70;;;;;;;4.25;93.58;98428.75;4229347;27;20043;-74
2023/01/14 08:15:31;;;;;;;6.00;1.65;;;;;;;4.33;94.67;98434.16;4225740;27;20375;-74
2023/01/14 08:17:32;;;;;;;3.38;1.40;;;;;;;4.33;93.24;98431.41;4222674;27;20031;-74
2023/01/14 08:19:32;;;;;;;10.15;1.98;;;;;;;4.40;92.92;98417.97;4237259;27;20547;-74
2023/01/14 08:21:33;;;;;;;6.70;1.80;;;;;;;4.52;93.34;98436.34;4226132;27;20359;-74
2023/01/14 08:23:34;;;;;;;9.55;1.98;;;;;;;4.49;92.35;98431.56;4225077;27;20073;-74
2023/01/14 08:25:34;;;;;;;6.00;1.75;;;;;;;4.46;93.36;98418.53;4225976;27;20035;-74
2023/01/14 08:27:35;;;;;;;5.45;1.75;;;;;;;4.45;94.51;98414.97;4231915;27;20127;-74
2023/01/14 08:29:35;;;;;;;7.38;1.60;;;;;;;4.45;93.61;98420.47;4231263;27;20538;-74
2023/01/14 08:31:35;;;;;;;6.25;1.80;;;;;;;4.50;94.69;98419.47;4220952;27;20036;-74
2023/01/14 08:33:36;;;;;;;8.48;2.00;;;;;;;4.57;94.62;98416.16;4220811;27;20075;-74
2023/01/14 08:35:40;;;;;;;5.22;2.13;;;;;;;4.58;94.50;98421.31;4234237;27;20075;-74
2023/01/14 08:37:41;;;;;;;7.10;2.55;;;;;;;4.54;92.97;98412.16;4222135;27;20039;-74
2023/01/14 08:39:41;;;;;;;5.55;1.67;;;;;;;4.67;94.90;98405.56;4221301;27;20394;-74
2023/01/14 08:41:42;;;;;;;6.45;3.45;;;;;;;4.70;92.75;98404.06;4222261;27;20088;-74
2023/01/14 08:43:48;;;;;;;5.72;1.90;;;;;;;4.65;92.81;98391.41;4220212;27;20051;-74
2023/01/14 08:45:50;;;;;;;9.13;2.10;;;;;;;4.74;92.36;98391.28;4220891;27;20044;-74
2023/01/14 08:47:51;;;;;;;3.88;2.22;;;;;;;4.75;93.11;98384.66;4221452;27;20323;-75
2023/01/14 08:49:51;;;;;;;4.70;1.70;;;;;;;4.83;91.81;98388.44;4221304;27;20116;-74
2023/01/14 08:51:56;;;;;;;5.45;2.63;;;;;;;4.80;91.98;98392.69;4230118;27;20422;-74
2023/01/14 08:54:01;;;;;;;4.72;1.90;;;;;;;4.85;91.90;98386.94;4229379;27;20205;-74
2023/01/14 08:56:03;;;;;;;7.13;1.95;;;;;;;4.85;91.95;98381.47;4227974;27;20039;-74
2023/01/14 08:58:06;;;;;;;16.77;1.98;;;;;;;4.87;91.15;98370.16;4227941;27;20031;-74
2023/01/14 09:00:07;;;;;;;;;;;;;;;4.99;90.86;98367.41;4225854;27;20047;-74
2023/01/14 09:02:13;;;;;;;3.33;1.52;;;;;;;4.95;91.36;98369.25;4222944;27;19907;-74
2023/01/14 09:04:14;;;;;;;6.80;1.83;;;;;;;4.96;90.66;98360.66;4221339;27;20027;-74
2023/01/14 09:06:16;;;;;;;11.65;2.35;;;;;;;4.98;89.39;98358.41;4227754;27;20019;-74
2023/01/14 09:17:35;;;;;;;7.70;2.20;;;;;;;5.13;90.29;98343.19;4221936;27;20465;-74
2023/01/14 09:19:44;;;;;;;9.48;3.47;;;;;;;5.16;90.51;98347.19;4220559;27;20461;-74
2023/01/14 09:21:45;;;;;;;16.52;4.70;;;;;;;5.18;91.21;98342.94;4220424;27;20039;-74
2023/01/14 09:23:45;;;;;;;13.90;5.50;;;;;;;5.16;90.45;98347.19;4232633;27;20421;-74
2023/01/14 09:25:45;;;;;;;13.07;5.43;;;;;;;5.14;90.81;98350.28;4236552;27;20524;-74
2023/01/14 09:27:46;;;;;;;14.05;4.78;;;;;;;5.20;90.91;98354.34;4223059;27;20051;-74
2023/01/14 09:29:46;;;;;;;17.92;5.40;;;;;;;5.21;91.59;98352.41;4221862;27;20502;-74
2023/01/14 09:31:46;;;;;;;12.75;3.95;;;;;;;5.21;91.17;98366.13;4225241;27;20162;-74
2023/01/14 09:33:47;;;;;;;16.73;3.55;;;;;;;5.21;91.90;98361.47;4219979;27;20043;-74
2023/01/14 09:35:47;;;;;;;13.43;3.85;;;;;;;5.27;91.72;98345.56;4222163;27;20089;-74
2023/01/14 09:37:47;;;;;;;10.02;3.55;;;;;;;5.34;92.25;98348.50;4228375;27;20105;-74
2023/01/14 09:39:49;;;;;;;10.30;2.45;;;;;;;5.32;90.94;98345.31;4223910;27;20031;-74
2023/01/14 09:41:57;;;;;;;12.35;2.67;;;;;;;5.35;91.27;98339.13;4223122;27;20047;-74
2023/01/14 09:43:59;;;;;;;10.52;3.35;;;;;;;5.30;92.22;98331.97;4227296;27;20031;-74
2023/01/14 09:46:00;;;;;;;7.55;2.55;;;;;;;5.30;92.31;98326.47;4228270;27;20169;-74
2023/01/14 09:48:11;;;;;;;8.02;2.70;;;;;;;5.40;92.78;98324.38;4219890;28;20579;-74
2023/01/14 09:50:15;;;;;;;8.52;2.85;;;;;;;5.42;92.84;98325.63;4219090;27;20092;-74
2023/01/14 09:52:52;;;;;;;7.25;2.83;;;;;;;5.44;92.51;98322.53;4219469;27;20434;-74
2023/01/14 09:55:10;;;;;;;11.00;2.97;;;;;;;5.46;93.03;98318.31;4219666;27;20042;-74
2023/01/14 09:57:19;;;;;;;9.23;2.60;;;;;;;5.50;93.46;98318.41;4225180;27;20078;-74
2023/01/14 09:59:59;;;;;;;5.35;1.95;;;;;;;5.53;92.78;98315.75;4221852;27;20380;-74
2023/01/14 10:02:09;;;;;;;9.27;2.30;;;;;;;5.56;92.70;98303.28;4205478;27;20448;-74
2023/01/14 10:04:40;;;;;;;9.38;1.95;;;;;;;5.55;93.79;98307.19;4224101;27;20388;-74
2023/01/14 10:06:43;;;;;;;9.35;2.60;;;;;;;5.56;93.17;98309.56;4223280;27;20116;-74
2023/01/14 10:08:52;;;;;;;8.15;2.20;;;;;;;5.61;93.59;98303.03;4227628;27;20059;-74
2023/01/14 10:10:54;;;;;;;7.18;2.13;;;;;;;5.63;94.16;98285.09;4228127;27;20635;-74
2023/01/14 10:13:01;;;;;;;6.97;2.38;;;;;;;5.71;92.88;98294.31;4219377;27;20071;-74
2023/01/14 10:15:37;;;;;;;5.00;1.67;;;;;;;5.69;92.50;98279.31;4221013;27;20397;-74
2023/01/14 10:17:41;;;;;;;6.88;2.10;;;;;;;5.75;93.01;98273.22;4227385;27;20143;-74
2023/01/14 10:19:48;;;;;;;4.90;1.88;;;;;;;5.77;93.39;98267.38;4222644;27;20039;-74